sensor_id;sensor_type;location;lat;lon;timestamp;temperature;humidity
75357;HTU21D;63946;51.986;5.930;2023-10-09T17:18:48;19.76;71.00
75357;HTU21D;63946;51.986;5.930;2023-10-09T17:21:19;19.73;71.06
75357;HTU21D;63946;51.986;5.930;2023-10-09T17:23:50;19.71;71.11
75357;HTU21D;63946;51.986;5.930;2023-10-09T17:26:19;19.68;71.17
75357;HTU21D;63946;51.986;5.930;2023-10-09T17:28:49;19.63;71.19
75357;HTU21D;63946;51.986;5.930;2023-10-09T17:31:19;19.58;71.22
75357;HTU21D;63946;51.986;5.930;2023-10-09T17:33:52;19.57;71.32
75357;HTU21D;63946;51.986;5.930;2023-10-09T17:36:21;19.53;71.32
75357;HTU21D;63946;51.986;5.930;2023-10-09T17:38:52;19.51;71.45
75357;HTU21D;63946;51.986;5.930;2023-10-09T17:41:26;19.51;71.41
75357;HTU21D;63946;51.986;5.930;2023-10-09T17:44:05;19.50;71.42
75357;HTU21D;63946;51.986;5.930;2023-10-09T17:46:34;19.47;71.49
75357;HTU21D;63946;51.986;5.930;2023-10-09T17:49:02;19.50;71.42
75357;HTU21D;63946;51.986;5.930;2023-10-09T17:51:32;19.47;71.47
75357;HTU21D;63946;51.986;5.930;2023-10-09T17:54:05;19.45;71.64
75357;HTU21D;63946;51.986;5.930;2023-10-09T17:56:40;19.42;71.81
75357;HTU21D;63946;51.986;5.930;2023-10-09T17:59:09;19.40;71.84
75357;HTU21D;63946;51.986;5.930;2023-10-09T18:01:38;19.38;71.90
75357;HTU21D;63946;51.986;5.930;2023-10-09T18:04:10;19.36;71.97
75357;HTU21D;63946;51.986;5.930;2023-10-09T18:06:54;19.36;72.06
75357;HTU21D;63946;51.986;5.930;2023-10-09T18:09:24;19.33;72.17
75357;HTU21D;63946;51.986;5.930;2023-10-09T18:11:56;19.30;72.16
75357;HTU21D;63946;51.986;5.930;2023-10-09T18:14:29;19.29;72.22
75357;HTU21D;63946;51.986;5.930;2023-10-09T18:17:00;19.28;72.33
75357;HTU21D;63946;51.986;5.930;2023-10-09T18:19:32;19.24;72.45
75357;HTU21D;63946;51.986;5.930;2023-10-09T18:22:04;19.22;72.52
75357;HTU21D;63946;51.986;5.930;2023-10-09T18:24:33;19.16;72.74
75357;HTU21D;63946;51.986;5.930;2023-10-09T18:27:06;19.16;72.70
75357;HTU21D;63946;51.986;5.930;2023-10-09T18:29:38;19.16;72.81
75357;HTU21D;63946;51.986;5.930;2023-10-09T18:32:07;19.15;72.85
75357;HTU21D;63946;51.986;5.930;2023-10-09T18:34:36;19.15;72.88
75357;HTU21D;63946;51.986;5.930;2023-10-09T18:37:05;19.14;72.94
75357;HTU21D;63946;51.986;5.930;2023-10-09T18:39:34;19.13;72.95
75357;HTU21D;63946;51.986;5.930;2023-10-09T18:42:06;19.13;73.19
75357;HTU21D;63946;51.986;5.930;2023-10-09T18:44:35;19.13;73.12
75357;HTU21D;63946;51.986;5.930;2023-10-09T18:47:08;19.13;73.11
75357;HTU21D;63946;51.986;5.930;2023-10-09T18:49:43;19.13;73.15
75357;HTU21D;63946;51.986;5.930;2023-10-09T18:52:16;19.11;73.19
75357;HTU21D;63946;51.986;5.930;2023-10-09T18:54:50;19.09;73.30
75357;HTU21D;63946;51.986;5.930;2023-10-09T18:57:18;19.06;73.41
75357;HTU21D;63946;51.986;5.930;2023-10-09T18:59:54;19.03;73.38
75357;HTU21D;63946;51.986;5.930;2023-10-09T19:02:25;19.01;73.51
75357;HTU21D;63946;51.986;5.930;2023-10-09T19:04:54;19.01;73.51
75357;HTU21D;63946;51.986;5.930;2023-10-09T19:07:24;18.99;73.44
75357;HTU21D;63946;51.986;5.930;2023-10-09T19:09:54;18.98;73.48
75357;HTU21D;63946;51.986;5.930;2023-10-09T19:12:26;18.96;73.49
75357;HTU21D;63946;51.986;5.930;2023-10-09T19:14:55;18.94;73.44
75357;HTU21D;63946;51.986;5.930;2023-10-09T19:17:23;18.92;73.69
75357;HTU21D;63946;51.986;5.930;2023-10-09T19:19:52;18.89;73.64
75357;HTU21D;63946;51.986;5.930;2023-10-09T19:22:21;18.91;73.64
75357;HTU21D;63946;51.986;5.930;2023-10-09T19:24:50;18.91;73.61
75357;HTU21D;63946;51.986;5.930;2023-10-09T19:27:19;18.89;73.57
75357;HTU21D;63946;51.986;5.930;2023-10-09T19:29:52;18.89;73.62
75357;HTU21D;63946;51.986;5.930;2023-10-09T19:32:21;18.88;73.72
75357;HTU21D;63946;51.986;5.930;2023-10-09T19:34:51;18.86;73.58
75357;HTU21D;63946;51.986;5.930;2023-10-09T19:37:20;18.86;73.80
75357;HTU21D;63946;51.986;5.930;2023-10-09T19:39:49;18.87;73.72
75357;HTU21D;63946;51.986;5.930;2023-10-09T19:42:18;18.87;73.79
75357;HTU21D;63946;51.986;5.930;2023-10-09T19:44:47;18.88;73.80
75357;HTU21D;63946;51.986;5.930;2023-10-09T19:47:18;18.88;73.70
75357;HTU21D;63946;51.986;5.930;2023-10-09T19:49:49;18.87;73.86
75357;HTU21D;63946;51.986;5.930;2023-10-09T19:52:22;18.86;73.91
75357;HTU21D;63946;51.986;5.930;2023-10-09T19:54:50;18.84;73.80
75357;HTU21D;63946;51.986;5.930;2023-10-09T19:57:22;18.82;73.97
75357;HTU21D;63946;51.986;5.930;2023-10-09T19:59:51;18.80;73.95
75357;HTU21D;63946;51.986;5.930;2023-10-09T20:02:23;18.76;74.21
75357;HTU21D;63946;51.986;5.930;2023-10-09T20:04:52;18.76;74.25
75357;HTU21D;63946;51.986;5.930;2023-10-09T20:07:21;18.74;74.22
75357;HTU21D;63946;51.986;5.930;2023-10-09T20:09:50;18.73;74.24
75357;HTU21D;63946;51.986;5.930;2023-10-09T20:12:24;18.73;74.24
75357;HTU21D;63946;51.986;5.930;2023-10-09T20:14:55;18.71;74.25
